sensor_id;sensor_type;location;lat;lon;timestamp;temperature;humidity
5850;DHT22;2951;47.712;9.400;2022-08-19T00:01:24;17.80;99.90
5850;DHT22;2951;47.712;9.400;2022-08-19T00:03:54;17.80;99.90
5850;DHT22;2951;47.712;9.400;2022-08-19T00:06:20;17.80;99.90
5850;DHT22;2951;47.712;9.400;2022-08-19T00:08:47;17.80;99.90
5850;DHT22;2951;47.712;9.400;2022-08-19T00:11:14;17.70;99.90
5850;DHT22;2951;47.712;9.400;2022-08-19T00:13:44;17.70;99.90
5850;DHT22;2951;47.712;9.400;2022-08-19T00:16:12;17.70;99.90
5850;DHT22;2951;47.712;9.400;2022-08-19T00:18:39;17.60;99.90
5850;DHT22;2951;47.712;9.400;2022-08-19T00:21:05;17.60;99.90
5850;DHT22;2951;47.712;9.400;2022-08-19T00:23:35;17.60;99.90
5850;DHT22;2951;47.712;9.400;2022-08-19T00:26:03;17.60;99.90
5850;DHT22;2951;47.712;9.400;2022-08-19T00:28:30;17.60;99.90
5850;DHT22;2951;47.712;9.400;2022-08-19T00:30:56;17.60;99.90
5850;DHT22;2951;47.712;9.400;2022-08-19T00:33:23;17.60;99.90
5850;DHT22;2951;47.712;9.400;2022-08-19T00:35:50;17.60;99.90
5850;DHT22;2951;47.712;9.400;2022-08-19T00:38:21;17.50;99.90
5850;DHT22;2951;47.712;9.400;2022-08-19T00:40:55;17.50;99.90
5850;DHT22;2951;47.712;9.400;2022-08-19T00:43:23;17.50;99.90
5850;DHT22;2951;47.712;9.400;2022-08-19T00:45:50;17.50;99.90
5850;DHT22;2951;47.712;9.400;2022-08-19T00:48:17;17.50;99.90
5850;DHT22;2951;47.712;9.400;2022-08-19T00:50:44;17.60;99.90
5850;DHT22;2951;47.712;9.400;2022-08-19T00:53:17;17.50;99.90
5850;DHT22;2951;47.712;9.400;2022-08-19T00:55:46;17.50;99.90
5850;DHT22;2951;47.712;9.400;2022-08-19T00:58:14;17.40;99.90
5850;DHT22;2951;47.712;9.400;2022-08-19T01:00:41;17.50;99.90
5850;DHT22;2951;47.712;9.400;2022-08-19T01:03:10;17.50;99.90
5850;DHT22;2951;47.712;9.400;2022-08-19T01:05:37;17.50;99.90
5850;DHT22;2951;47.712;9.400;2022-08-19T01:08:06;17.50;99.90
5850;DHT22;2951;47.712;9.400;2022-08-19T01:10:33;17.50;99.90
5850;DHT22;2951;47.712;9.400;2022-08-19T01:13:03;17.60;99.90
5850;DHT22;2951;47.712;9.400;2022-08-19T01:15:31;17.60;99.90
5850;DHT22;2951;47.712;9.400;2022-08-19T01:18:04;17.60;99.90
5850;DHT22;2951;47.712;9.400;2022-08-19T01:20:32;17.60;99.90
5850;DHT22;2951;47.712;9.400;2022-08-19T01:23:01;17.60;99.90
5850;DHT22;2951;47.712;9.400;2022-08-19T01:25:46;17.70;99.90
5850;DHT22;2951;47.712;9.400;2022-08-19T01:28:17;17.70;99.90
5850;DHT22;2951;47.712;9.400;2022-08-19T01:30:44;17.70;99.90
5850;DHT22;2951;47.712;9.400;2022-08-19T01:33:17;17.70;99.90
5850;DHT22;2951;47.712;9.400;2022-08-19T01:35:44;17.70;99.90
5850;DHT22;2951;47.712;9.400;2022-08-19T01:38:18;17.60;99.90
5850;DHT22;2951;47.712;9.400;2022-08-19T01:40:45;17.60;99.90
5850;DHT22;2951;47.712;9.400;2022-08-19T01:43:12;17.50;99.90
5850;DHT22;2951;47.712;9.400;2022-08-19T01:45:39;17.50;99.90
5850;DHT22;2951;47.712;9.400;2022-08-19T01:48:06;17.50;99.90
5850;DHT22;2951;47.712;9.400;2022-08-19T01:50:34;17.50;99.90
5850;DHT22;2951;47.712;9.400;2022-08-19T01:53:02;17.60;99.90
5850;DHT22;2951;47.712;9.400;2022-08-19T01:55:32;17.60;99.90
5850;DHT22;2951;47.712;9.400;2022-08-19T01:57:59;17.60;99.90
5850;DHT22;2951;47.712;9.400;2022-08-19T02:00:29;17.60;99.90
5850;DHT22;2951;47.712;9.400;2022-08-19T02:02:56;17.60;99.90
5850;DHT22;2951;47.712;9.400;2022-08-19T02:05:23;17.60;99.90
5850;DHT22;2951;47.712;9.400;2022-08-19T02:07:50;17.60;99.90
5850;DHT22;2951;47.712;9.400;2022-08-19T02:10:18;17.60;99.90
5850;DHT22;2951;47.712;9.400;2022-08-19T02:12:46;17.70;99.90
5850;DHT22;2951;47.712;9.400;2022-08-19T02:15:13;17.70;99.90
5850;DHT22;2951;47.712;9.400;2022-08-19T02:17:39;17.60;99.90
5850;DHT22;2951;47.712;9.400;2022-08-19T02:20:07;17.70;99.90
5850;DHT22;2951;47.712;9.400;2022-08-19T02:22:34;17.80;99.90
5850;DHT22;2951;47.712;9.400;2022-08-19T02:25:01;17.80;99.90
5850;DHT22;2951;47.712;9.400;2022-08-19T02:27:28;17.80;99.90
5850;DHT22;2951;47.712;9.400;2022-08-19T02:29:55;17.90;99.90
5850;DHT22;2951;47.712;9.400;2022-08-19T02:32:22;17.90;99.90
5850;DHT22;2951;47.712;9.400;2022-08-19T02:34:48;18.00;99.90
5850;DHT22;2951;47.712;9.400;2022-08-19T02:37:15;18.00;99.90
5850;DHT22;2951;47.712;9.400;2022-08-19T02:40:01;18.10;99.90
5850;DHT22;2951;47.712;9.400;2022-08-19T02:42:28;18.10;99.90
5850;DHT22;2951;47.712;9.400;2022-08-19T02:44:55;18.10;99.90
5850;DHT22;2951;47.712;9.400;2022-08-19T02:47:22;18.10;99.90
5850;DHT22;2951;47.712;9.400;2022-08-19T02:49:48;18.10;99.90
5850;DHT22;2951;47.712;9.400;2022-08-19T02:52:16;18.10;99.90
5850;DHT22;2951;47.712;9.400;2022-08-19T02:54:43;18.20;99.90
5850;DHT22;2951;47.712;9.400;2022-08-19T02:57:10;18.20;99.90
5850;DHT22;2951;47.712;9.400;2022-08-19T02:59:37;18.20;99.90
5850;DHT22;2951;47.712;9.400;2022-08-19T03:02:03;18.10;99.90
5850;DHT22;2951;47.712;9.400;2022-08-19T03:04:30;18.10;99.90
5850;DHT22;2951;47.712;9.400;2022-08-19T03:06:57;18.10;99.90
5850;DHT22;2951;47.712;9.400;2022-08-19T03:09:28;18.00;99.90
5850;DHT22;2951;47.712;9.400;2022-08-19T03:11:56;18.00;99.90
5850;DHT22;2951;47.712;9.400;2022-08-19T03:14:23;18.00;99.90
5850;DHT22;2951;47.712;9.400;2022-08-19T03:16:51;17.90;99.90
5850;DHT22;2951;47.712;9.400;2022-08-19T03:19:18;18.00;99.90
5850;DHT22;2951;47.712;9.400;2022-08-19T03:21:46;18.00;99.90
5850;DHT22;2951;47.712;9.400;2022-08-19T03:24:13;18.10;99.90
5850;DHT22;2951;47.712;9.400;2022-08-19T03:26:41;18.10;99.90
5850;DHT22;2951;47.712;9.400;2022-08-19T03:29:09;18.10;99.90
5850;DHT22;2951;47.712;9.400;2022-08-19T03:31:37;18.10;99.90
5850;DHT22;2951;47.712;9.400;2022-08-19T03:34:11;18.20;99.90
5850;DHT22;2951;47.712;9.400;2022-08-19T03:36:38;18.10;99.90
5850;DHT22;2951;47.712;9.400;2022-08-19T03:39:04;18.20;99.90
5850;DHT22;2951;47.712;9.400;2022-08-19T03:41:36;18.20;99.90
5850;DHT22;2951;47.712;9.400;2022-08-19T03:44:10;18.10;99.90
5850;DHT22;2951;47.712;9.400;2022-08-19T03:46:42;18.20;99.90
5850;DHT22;2951;47.712;9.400;2022-08-19T03:49:10;18.20;99.90
5850;DHT22;2951;47.712;9.400;2022-08-19T03:51:37;18.20;99.90
5850;DHT22;2951;47.712;9.400;2022-08-19T03:54:06;18.10;99.90
5850;DHT22;2951;47.712;9.400;2022-08-19T03:56:37;18.00;99.90
5850;DHT22;2951;47.712;9.400;2022-08-19T03:59:04;18.10;99.90
5850;DHT22;2951;47.712;9.400;2022-08-19T04:01:32;18.10;99.90
5850;DHT22;2951;47.712;9.400;2022-08-19T04:04:01;18.10;99.90
5850;DHT22;2951;47.712;9.400;2022-08-19T04:06:29;18.00;99.90
5850;DHT22;2951;47.712;9.400;2022-08-19T04:08:57;18.00;99.90
5850;DHT22;2951;47.712;9.400;2022-08-19T04:11:25;18.10;99.90
5850;DHT22;2951;47.712;9.400;2022-08-19T04:14:09;18.10;99.90
5850;DHT22;2951;47.712;9.400;2022-08-19T04:16:37;18.10;99.90
5850;DHT22;2951;47.712;9.400;2022-08-19T04:19:04;18.10;99.90
5850;DHT22;2951;47.712;9.400;2022-08-19T04:21:31;18.00;99.90
5850;DHT22;2951;47.712;9.400;2022-08-19T04:23:59;18.00;99.90
5850;DHT22;2951;47.712;9.400;2022-08-19T04:26:27;18.00;99.90
5850;DHT22;2951;47.712;9.400;2022-08-19T04:28:54;18.10;99.90
5850;DHT22;2951;47.712;9.400;2022-08-19T04:31:22;18.00;99.90
5850;DHT22;2951;47.712;9.400;2022-08-19T04:33:53;18.00;99.90
5850;DHT22;2951;47.712;9.400;2022-08-19T04:36:21;18.00;99.90
5850;DHT22;2951;47.712;9.400;2022-08-19T04:38:48;18.00;99.90
5850;DHT22;2951;47.712;9.400;2022-08-19T04:41:15;18.00;99.90
5850;DHT22;2951;47.712;9.400;2022-08-19T04:44:01;18.00;99.90
5850;DHT22;2951;47.712;9.400;2022-08-19T04:46:30;18.00;99.90
5850;DHT22;2951;47.712;9.400;2022-08-19T04:49:06;18.10;99.90
5850;DHT22;2951;47.712;9.400;2022-08-19T04:51:39;18.00;99.90
5850;DHT22;2951;47.712;9.400;2022-08-19T04:54:06;18.00;99.90
5850;DHT22;2951;47.712;9.400;2022-08-19T04:56:33;18.00;99.90
5850;DHT22;2951;47.712;9.400;2022-08-19T04:59:00;18.00;99.90
5850;DHT22;2951;47.712;9.400;2022-08-19T05:01:31;18.00;99.90
5850;DHT22;2951;47.712;9.400;2022-08-19T05:03:59;18.00;99.90
5850;DHT22;2951;47.712;9.400;2022-08-19T05:06:27;18.00;99.90
5850;DHT22;2951;47.712;9.400;2022-08-19T05:08:55;18.00;99.90
5850;DHT22;2951;47.712;9.400;2022-08-19T05:11:24;18.00;99.90
5850;DHT22;2951;47.712;9.400;2022-08-19T05:13:52;18.00;99.90
5850;DHT22;2951;47.712;9.400;2022-08-19T05:16:19;18.00;99.90
5850;DHT22;2951;47.712;9.400;2022-08-19T05:18:47;18.00;99.90
5850;DHT22;2951;47.712;9.400;2022-08-19T05:21:33;18.00;99.90
5850;DHT22;2951;47.712;9.400;2022-08-19T05:24:18;18.00;99.90
5850;DHT22;2951;47.712;9.400;2022-08-19T05:26:46;18.00;99.90
5850;DHT22;2951;47.712;9.400;2022-08-19T05:29:15;18.00;99.90
5850;DHT22;2951;47.712;9.400;2022-08-19T05:31:43;18.00;99.90
5850;DHT22;2951;47.712;9.400;2022-08-19T05:34:10;18.00;99.90
5850;DHT22;2951;47.712;9.400;2022-08-19T05:36:44;18.00;99.90
5850;DHT22;2951;47.712;9.400;2022-08-19T05:39:13;18.10;99.90
5850;DHT22;2951;47.712;9.400;2022-08-19T05:41:44;18.10;99.90
5850;DHT22;2951;47.712;9.400;2022-08-19T05:44:13;18.10;99.90
5850;DHT22;2951;47.712;9.400;2022-08-19T05:46:40;18.10;99.90
5850;DHT22;2951;47.712;9.400;2022-08-19T05:49:09;18.10;99.90
5850;DHT22;2951;47.712;9.400;2022-08-19T05:51:36;18.10;99.90
5850;DHT22;2951;47.712;9.400;2022-08-19T05:54:04;18.10;99.90
5850;DHT22;2951;47.712;9.400;2022-08-19T05:56:31;18.10;99.90
5850;DHT22;2951;47.712;9.400;2022-08-19T05:58:58;18.10;99.90
5850;DHT22;2951;47.712;9.400;2022-08-19T06:01:25;18.10;99.90
5850;DHT22;2951;47.712;9.400;2022-08-19T06:03:52;18.10;99.90
5850;DHT22;2951;47.712;9.400;2022-08-19T06:06:20;18.00;99.90
5850;DHT22;2951;47.712;9.400;2022-08-19T06:08:47;18.00;99.90
5850;DHT22;2951;47.712;9.400;2022-08-19T06:13:48;18.10;99.90
5850;DHT22;2951;47.712;9.400;2022-08-19T06:16:17;18.00;99.90
5850;DHT22;2951;47.712;9.400;2022-08-19T06:18:53;18.00;99.90
5850;DHT22;2951;47.712;9.400;2022-08-19T06:21:20;18.10;99.90
5850;DHT22;2951;47.712;9.400;2022-08-19T06:23:48;18.10;99.90
5850;DHT22;2951;47.712;9.400;2022-08-19T06:26:15;18.10;99.90
5850;DHT22;2951;47.712;9.400;2022-08-19T06:28:42;18.00;99.90
5850;DHT22;2951;47.712;9.400;2022-08-19T06:31:23;18.00;99.90
5850;DHT22;2951;47.712;9.400;2022-08-19T06:33:50;18.00;99.90
5850;DHT22;2951;47.712;9.400;2022-08-19T06:36:19;18.00;99.90
5850;DHT22;2951;47.712;9.400;2022-08-19T06:38:45;18.00;99.90
5850;DHT22;2951;47.712;9.400;2022-08-19T06:41:12;18.10;99.90
5850;DHT22;2951;47.712;9.400;2022-08-19T06:43:39;18.10;99.90
5850;DHT22;2951;47.712;9.400;2022-08-19T06:46:11;18.10;99.90
5850;DHT22;2951;47.712;9.400;2022-08-19T06:48:38;18.10;99.90
5850;DHT22;2951;47.712;9.400;2022-08-19T06:51:11;18.10;99.90
5850;DHT22;2951;47.712;9.400;2022-08-19T06:53:38;18.10;99.90
5850;DHT22;2951;47.712;9.400;2022-08-19T06:56:06;18.00;99.90
5850;DHT22;2951;47.712;9.400;2022-08-19T06:58:32;18.00;99.90
5850;DHT22;2951;47.712;9.400;2022-08-19T07:01:00;18.00;99.90
5850;DHT22;2951;47.712;9.400;2022-08-19T07:03:32;18.00;99.90
5850;DHT22;2951;47.712;9.400;2022-08-19T07:06:03;18.00;99.90
5850;DHT22;2951;47.712;9.400;2022-08-19T07:08:33;17.90;99.90
5850;DHT22;2951;47.712;9.400;2022-08-19T07:11:00;17.90;99.90
5850;DHT22;2951;47.712;9.400;2022-08-19T07:13:27;17.90;99.90
5850;DHT22;2951;47.712;9.400;2022-08-19T07:15:53;17.90;99.90
5850;DHT22;2951;47.712;9.400;2022-08-19T07:18:20;17.90;99.90
5850;DHT22;2951;47.712;9.400;2022-08-19T07:20:47;17.80;99.90
5850;DHT22;2951;47.712;9.400;2022-08-19T07:23:14;17.80;99.90
5850;DHT22;2951;47.712;9.400;2022-08-19T07:25:42;17.80;99.90
5850;DHT22;2951;47.712;9.400;2022-08-19T07:28:09;17.90;99.90
5850;DHT22;2951;47.712;9.400;2022-08-19T07:30:45;17.90;99.90
5850;DHT22;2951;47.712;9.400;2022-08-19T07:33:12;17.90;99.90
5850;DHT22;2951;47.712;9.400;2022-08-19T07:35:39;17.90;99.90
5850;DHT22;2951;47.712;9.400;2022-08-19T07:38:06;17.90;99.90
5850;DHT22;2951;47.712;9.400;2022-08-19T07:40:32;18.00;99.90
5850;DHT22;2951;47.712;9.400;2022-08-19T07:42:59;17.90;99.90
5850;DHT22;2951;47.712;9.400;2022-08-19T07:45:26;17.90;99.90
5850;DHT22;2951;47.712;9.400;2022-08-19T07:47:54;17.90;99.90
5850;DHT22;2951;47.712;9.400;2022-08-19T07:50:21;18.00;99.90
5850;DHT22;2951;47.712;9.400;2022-08-19T07:52:48;18.10;99.90
5850;DHT22;2951;47.712;9.400;2022-08-19T07:55:18;18.10;99.90
5850;DHT22;2951;47.712;9.400;2022-08-19T07:58:05;18.10;99.90
5850;DHT22;2951;47.712;9.400;2022-08-19T08:00:32;18.20;99.90
5850;DHT22;2951;47.712;9.400;2022-08-19T08:02:59;18.20;99.90
5850;DHT22;2951;47.712;9.400;2022-08-19T08:05:25;18.10;99.90
5850;DHT22;2951;47.712;9.400;2022-08-19T08:08:11;18.10;99.90
5850;DHT22;2951;47.712;9.400;2022-08-19T08:10:57;18.20;99.90
5850;DHT22;2951;47.712;9.400;2022-08-19T08:13:25;18.20;99.90
5850;DHT22;2951;47.712;9.400;2022-08-19T08:15:52;18.10;99.90
5850;DHT22;2951;47.712;9.400;2022-08-19T08:18:20;18.10;99.90
5850;DHT22;2951;47.712;9.400;2022-08-19T08:20:47;18.10;99.90
5850;DHT22;2951;47.712;9.400;2022-08-19T08:23:13;18.20;99.90
5850;DHT22;2951;47.712;9.400;2022-08-19T08:25:52;18.10;99.90
5850;DHT22;2951;47.712;9.400;2022-08-19T08:28:20;18.10;99.90
5850;DHT22;2951;47.712;9.400;2022-08-19T08:30:47;18.20;99.90
5850;DHT22;2951;47.712;9.400;2022-08-19T08:33:23;18.20;99.90
5850;DHT22;2951;47.712;9.400;2022-08-19T08:35:55;18.20;99.90
5850;DHT22;2951;47.712;9.400;2022-08-19T08:38:22;18.20;99.90
5850;DHT22;2951;47.712;9.400;2022-08-19T08:40:50;18.10;99.90
5850;DHT22;2951;47.712;9.400;2022-08-19T08:48:24;18.20;99.90
5850;DHT22;2951;47.712;9.400;2022-08-19T08:50:52;18.20;99.90
5850;DHT22;2951;47.712;9.400;2022-08-19T08:53:21;18.20;99.90
5850;DHT22;2951;47.712;9.400;2022-08-19T08:55:55;18.20;99.90
5850;DHT22;2951;47.712;9.400;2022-08-19T09:01:11;18.30;99.90
5850;DHT22;2951;47.712;9.400;2022-08-19T09:03:40;18.30;99.90
5850;DHT22;2951;47.712;9.400;2022-08-19T09:06:13;18.30;99.90
5850;DHT22;2951;47.712;9.400;2022-08-19T09:08:48;18.30;99.90
5850;DHT22;2951;47.712;9.400;2022-08-19T09:11:23;18.40;99.90
5850;DHT22;2951;47.712;9.400;2022-08-19T09:17:10;18.30;99.90
5850;DHT22;2951;47.712;9.400;2022-08-19T09:19:54;18.30;99.90
5850;DHT22;2951;47.712;9.400;2022-08-19T09:22:21;18.30;99.90
5850;DHT22;2951;47.712;9.400;2022-08-19T09:24:51;18.30;99.90
5850;DHT22;2951;47.712;9.400;2022-08-19T09:27:21;18.20;99.90
5850;DHT22;2951;47.712;9.400;2022-08-19T09:30:09;18.20;99.90
5850;DHT22;2951;47.712;9.400;2022-08-19T09:32:36;18.20;99.90
5850;DHT22;2951;47.712;9.400;2022-08-19T09:35:05;18.20;99.90
5850;DHT22;2951;47.712;9.400;2022-08-19T09:37:34;18.20;99.90
5850;DHT22;2951;47.712;9.400;2022-08-19T09:40:01;18.10;99.90
5850;DHT22;2951;47.712;9.400;2022-08-19T09:42:28;18.10;99.90
5850;DHT22;2951;47.712;9.400;2022-08-19T09:44:55;18.10;99.90
5850;DHT22;2951;47.712;9.400;2022-08-19T09:47:22;18.10;99.90
5850;DHT22;2951;47.712;9.400;2022-08-19T09:49:49;18.10;99.90
5850;DHT22;2951;47.712;9.400;2022-08-19T09:52:16;18.00;99.90
5850;DHT22;2951;47.712;9.400;2022-08-19T09:54:44;18.10;99.90
5850;DHT22;2951;47.712;9.400;2022-08-19T09:57:10;18.00;99.90
5850;DHT22;2951;47.712;9.400;2022-08-19T09:59:38;17.90;99.90
5850;DHT22;2951;47.712;9.400;2022-08-19T10:02:05;17.80;99.90
5850;DHT22;2951;47.712;9.400;2022-08-19T10:04:36;17.90;99.90
5850;DHT22;2951;47.712;9.400;2022-08-19T10:07:21;17.80;99.90
5850;DHT22;2951;47.712;9.400;2022-08-19T10:09:48;17.80;99.90
5850;DHT22;2951;47.712;9.400;2022-08-19T10:12:15;17.90;99.90
5850;DHT22;2951;47.712;9.400;2022-08-19T10:14:43;17.90;99.90
5850;DHT22;2951;47.712;9.400;2022-08-19T10:17:10;17.90;99.90
5850;DHT22;2951;47.712;9.400;2022-08-19T10:19:45;18.00;99.90
5850;DHT22;2951;47.712;9.400;2022-08-19T10:22:20;18.00;99.90
5850;DHT22;2951;47.712;9.400;2022-08-19T10:24:48;18.00;99.90
5850;DHT22;2951;47.712;9.400;2022-08-19T10:27:16;18.00;99.90
5850;DHT22;2951;47.712;9.400;2022-08-19T10:29:43;17.90;99.90
5850;DHT22;2951;47.712;9.400;2022-08-19T10:32:12;17.90;99.90
5850;DHT22;2951;47.712;9.400;2022-08-19T10:34:38;17.90;99.90
5850;DHT22;2951;47.712;9.400;2022-08-19T10:37:15;17.90;99.90
5850;DHT22;2951;47.712;9.400;2022-08-19T10:39:44;17.90;99.90
5850;DHT22;2951;47.712;9.400;2022-08-19T10:42:13;17.80;99.90
5850;DHT22;2951;47.712;9.400;2022-08-19T10:44:40;17.90;99.90
5850;DHT22;2951;47.712;9.400;2022-08-19T10:47:07;17.80;99.90
5850;DHT22;2951;47.712;9.400;2022-08-19T10:49:48;17.90;99.90
5850;DHT22;2951;47.712;9.400;2022-08-19T10:52:33;17.90;99.90
5850;DHT22;2951;47.712;9.400;2022-08-19T10:55:01;17.90;99.90
5850;DHT22;2951;47.712;9.400;2022-08-19T10:57:46;17.80;99.90
5850;DHT22;2951;47.712;9.400;2022-08-19T11:00:29;17.80;99.90
5850;DHT22;2951;47.712;9.400;2022-08-19T11:02:57;17.90;99.90
5850;DHT22;2951;47.712;9.400;2022-08-19T11:05:24;17.80;99.90
5850;DHT22;2951;47.712;9.400;2022-08-19T11:07:50;17.70;99.90
5850;DHT22;2951;47.712;9.400;2022-08-19T11:10:18;17.70;99.90
5850;DHT22;2951;47.712;9.400;2022-08-19T11:12:47;17.80;99.90
5850;DHT22;2951;47.712;9.400;2022-08-19T11:15:14;17.80;99.90
5850;DHT22;2951;47.712;9.400;2022-08-19T11:17:41;17.80;99.90
5850;DHT22;2951;47.712;9.400;2022-08-19T11:20:13;17.80;99.90
5850;DHT22;2951;47.712;9.400;2022-08-19T11:22:40;17.80;99.90
5850;DHT22;2951;47.712;9.400;2022-08-19T11:25:08;17.80;99.90
5850;DHT22;2951;47.712;9.400;2022-08-19T11:27:44;17.80;99.90
5850;DHT22;2951;47.712;9.400;2022-08-19T11:30:13;17.90;99.90
5850;DHT22;2951;47.712;9.400;2022-08-19T11:32:41;17.90;99.90
5850;DHT22;2951;47.712;9.400;2022-08-19T11:35:12;17.80;99.90
5850;DHT22;2951;47.712;9.400;2022-08-19T11:37:41;17.80;99.90
5850;DHT22;2951;47.712;9.400;2022-08-19T11:40:08;17.90;99.90
5850;DHT22;2951;47.712;9.400;2022-08-19T11:42:35;17.90;99.90
5850;DHT22;2951;47.712;9.400;2022-08-19T11:45:22;17.90;99.90
5850;DHT22;2951;47.712;9.400;2022-08-19T11:47:49;17.80;99.90
5850;DHT22;2951;47.712;9.400;2022-08-19T11:50:16;17.90;99.90
5850;DHT22;2951;47.712;9.400;2022-08-19T11:52:43;17.90;99.90
5850;DHT22;2951;47.712;9.400;2022-08-19T11:55:12;17.90;99.90
5850;DHT22;2951;47.712;9.400;2022-08-19T11:57:39;17.70;99.90
5850;DHT22;2951;47.712;9.400;2022-08-19T12:00:07;17.80;99.90
5850;DHT22;2951;47.712;9.400;2022-08-19T12:02:35;17.80;99.90
5850;DHT22;2951;47.712;9.400;2022-08-19T12:05:02;17.90;99.90
5850;DHT22;2951;47.712;9.400;2022-08-19T12:07:30;17.90;99.90
5850;DHT22;2951;47.712;9.400;2022-08-19T12:10:00;17.80;99.90
5850;DHT22;2951;47.712;9.400;2022-08-19T12:12:27;17.90;99.90
5850;DHT22;2951;47.712;9.400;2022-08-19T12:14:54;17.80;99.90
5850;DHT22;2951;47.712;9.400;2022-08-19T12:17:23;17.80;99.90
5850;DHT22;2951;47.712;9.400;2022-08-19T12:19:51;17.80;99.90
5850;DHT22;2951;47.712;9.400;2022-08-19T12:22:18;17.90;99.90
5850;DHT22;2951;47.712;9.400;2022-08-19T12:24:47;17.90;99.90
5850;DHT22;2951;47.712;9.400;2022-08-19T12:27:17;18.00;99.90
5850;DHT22;2951;47.712;9.400;2022-08-19T12:29:49;18.00;99.90
5850;DHT22;2951;47.712;9.400;2022-08-19T12:32:16;18.00;99.90
5850;DHT22;2951;47.712;9.400;2022-08-19T12:34:43;18.10;99.90
5850;DHT22;2951;47.712;9.400;2022-08-19T12:37:10;18.20;99.90
5850;DHT22;2951;47.712;9.400;2022-08-19T12:39:39;18.10;99.90
5850;DHT22;2951;47.712;9.400;2022-08-19T12:42:06;18.00;99.90
5850;DHT22;2951;47.712;9.400;2022-08-19T12:44:36;18.20;99.90
5850;DHT22;2951;47.712;9.400;2022-08-19T12:47:02;18.10;99.90
5850;DHT22;2951;47.712;9.400;2022-08-19T12:49:30;18.10;99.90
5850;DHT22;2951;47.712;9.400;2022-08-19T12:52:18;18.10;99.90
5850;DHT22;2951;47.712;9.400;2022-08-19T12:54:49;18.20;99.90
5850;DHT22;2951;47.712;9.400;2022-08-19T12:57:19;18.30;99.90
5850;DHT22;2951;47.712;9.400;2022-08-19T12:59:46;18.30;99.90
5850;DHT22;2951;47.712;9.400;2022-08-19T13:02:13;18.40;99.90
5850;DHT22;2951;47.712;9.400;2022-08-19T13:04:39;18.60;99.90
5850;DHT22;2951;47.712;9.400;2022-08-19T13:07:07;18.70;99.90
5850;DHT22;2951;47.712;9.400;2022-08-19T13:09:35;18.60;99.90
5850;DHT22;2951;47.712;9.400;2022-08-19T13:12:02;18.70;99.90
5850;DHT22;2951;47.712;9.400;2022-08-19T13:14:30;18.80;99.90
5850;DHT22;2951;47.712;9.400;2022-08-19T13:16:58;18.70;99.90
5850;DHT22;2951;47.712;9.400;2022-08-19T13:19:25;18.80;99.90
5850;DHT22;2951;47.712;9.400;2022-08-19T13:21:52;18.80;99.90
5850;DHT22;2951;47.712;9.400;2022-08-19T13:24:25;18.70;99.90
5850;DHT22;2951;47.712;9.400;2022-08-19T13:26:56;18.70;99.90
5850;DHT22;2951;47.712;9.400;2022-08-19T13:29:23;18.70;99.90
5850;DHT22;2951;47.712;9.400;2022-08-19T13:32:09;18.70;99.90
5850;DHT22;2951;47.712;9.400;2022-08-19T13:34:54;18.70;99.90
5850;DHT22;2951;47.712;9.400;2022-08-19T13:37:21;18.70;99.90
5850;DHT22;2951;47.712;9.400;2022-08-19T13:42:39;18.60;99.90
5850;DHT22;2951;47.712;9.400;2022-08-19T13:45:06;18.40;99.90
5850;DHT22;2951;47.712;9.400;2022-08-19T13:47:34;18.50;99.90
5850;DHT22;2951;47.712;9.400;2022-08-19T13:50:04;18.60;99.90
5850;DHT22;2951;47.712;9.400;2022-08-19T13:52:31;18.60;99.90
5850;DHT22;2951;47.712;9.400;2022-08-19T13:54:57;18.60;99.90
5850;DHT22;2951;47.712;9.400;2022-08-19T13:57:25;18.60;99.90
5850;DHT22;2951;47.712;9.400;2022-08-19T13:59:51;18.60;99.90
5850;DHT22;2951;47.712;9.400;2022-08-19T14:02:18;18.50;99.90
5850;DHT22;2951;47.712;9.400;2022-08-19T14:04:45;18.60;99.90
5850;DHT22;2951;47.712;9.400;2022-08-19T14:07:12;18.50;99.90
5850;DHT22;2951;47.712;9.400;2022-08-19T14:09:39;18.50;99.90
5850;DHT22;2951;47.712;9.400;2022-08-19T14:12:06;18.50;99.90
5850;DHT22;2951;47.712;9.400;2022-08-19T14:14:36;18.40;99.90
5850;DHT22;2951;47.712;9.400;2022-08-19T14:17:07;18.40;99.90
5850;DHT22;2951;47.712;9.400;2022-08-19T14:19:34;18.40;99.90
5850;DHT22;2951;47.712;9.400;2022-08-19T14:22:01;18.40;99.90
5850;DHT22;2951;47.712;9.400;2022-08-19T14:24:27;18.40;99.90
5850;DHT22;2951;47.712;9.400;2022-08-19T14:26:54;18.40;99.90
5850;DHT22;2951;47.712;9.400;2022-08-19T14:29:21;18.30;99.90
5850;DHT22;2951;47.712;9.400;2022-08-19T14:31:48;18.30;99.90
5850;DHT22;2951;47.712;9.400;2022-08-19T14:34:14;18.30;99.90
5850;DHT22;2951;47.712;9.400;2022-08-19T14:36:41;18.40;99.90
5850;DHT22;2951;47.712;9.400;2022-08-19T14:39:08;18.40;99.90
5850;DHT22;2951;47.712;9.400;2022-08-19T14:41:36;18.40;99.90
5850;DHT22;2951;47.712;9.400;2022-08-19T14:44:02;18.50;99.90
5850;DHT22;2951;47.712;9.400;2022-08-19T14:46:29;18.40;99.90
5850;DHT22;2951;47.712;9.400;2022-08-19T14:48:56;18.40;99.90
5850;DHT22;2951;47.712;9.400;2022-08-19T14:51:25;18.40;99.90
5850;DHT22;2951;47.712;9.400;2022-08-19T14:53:53;18.50;99.90
5850;DHT22;2951;47.712;9.400;2022-08-19T14:56:21;18.50;99.90
5850;DHT22;2951;47.712;9.400;2022-08-19T14:58:49;18.50;99.90
5850;DHT22;2951;47.712;9.400;2022-08-19T15:01:18;18.60;99.90
5850;DHT22;2951;47.712;9.400;2022-08-19T15:03:47;18.60;99.90
5850;DHT22;2951;47.712;9.400;2022-08-19T15:06:14;18.60;99.90
5850;DHT22;2951;47.712;9.400;2022-08-19T15:08:41;18.60;99.90
5850;DHT22;2951;47.712;9.400;2022-08-19T15:11:10;18.60;99.90
5850;DHT22;2951;47.712;9.400;2022-08-19T15:13:37;18.60;99.90
5850;DHT22;2951;47.712;9.400;2022-08-19T15:16:06;18.60;99.90
5850;DHT22;2951;47.712;9.400;2022-08-19T15:18:43;18.60;99.90
5850;DHT22;2951;47.712;9.400;2022-08-19T15:21:16;18.60;99.90
5850;DHT22;2951;47.712;9.400;2022-08-19T15:23:53;18.60;99.90
5850;DHT22;2951;47.712;9.400;2022-08-19T15:26:20;18.60;99.90
5850;DHT22;2951;47.712;9.400;2022-08-19T15:28:47;18.60;99.90
5850;DHT22;2951;47.712;9.400;2022-08-19T15:31:16;18.50;99.90
5850;DHT22;2951;47.712;9.400;2022-08-19T15:33:49;18.60;99.90
5850;DHT22;2951;47.712;9.400;2022-08-19T15:36:16;18.50;99.90
5850;DHT22;2951;47.712;9.400;2022-08-19T15:38:43;18.50;99.90
5850;DHT22;2951;47.712;9.400;2022-08-19T15:41:29;18.50;99.90
5850;DHT22;2951;47.712;9.400;2022-08-19T15:44:00;18.50;99.90
5850;DHT22;2951;47.712;9.400;2022-08-19T15:46:29;18.50;99.90
5850;DHT22;2951;47.712;9.400;2022-08-19T15:48:57;18.50;99.90
5850;DHT22;2951;47.712;9.400;2022-08-19T15:51:26;18.40;99.90
5850;DHT22;2951;47.712;9.400;2022-08-19T15:53:54;18.40;99.90
5850;DHT22;2951;47.712;9.400;2022-08-19T15:56:21;18.40;99.90
5850;DHT22;2951;47.712;9.400;2022-08-19T15:58:52;18.40;99.90
5850;DHT22;2951;47.712;9.400;2022-08-19T16:01:37;18.40;99.90
5850;DHT22;2951;47.712;9.400;2022-08-19T16:04:22;18.30;99.90
5850;DHT22;2951;47.712;9.400;2022-08-19T16:07:08;18.30;99.90
5850;DHT22;2951;47.712;9.400;2022-08-19T16:09:35;18.40;99.90
5850;DHT22;2951;47.712;9.400;2022-08-19T16:12:03;18.40;99.90
5850;DHT22;2951;47.712;9.400;2022-08-19T16:14:31;18.40;99.90
5850;DHT22;2951;47.712;9.400;2022-08-19T16:16:58;18.40;99.90
5850;DHT22;2951;47.712;9.400;2022-08-19T16:19:25;18.40;99.90
5850;DHT22;2951;47.712;9.400;2022-08-19T16:21:52;18.50;99.90
5850;DHT22;2951;47.712;9.400;2022-08-19T16:24:20;18.50;99.90
5850;DHT22;2951;47.712;9.400;2022-08-19T16:26:47;18.60;99.90
5850;DHT22;2951;47.712;9.400;2022-08-19T16:29:15;18.50;99.90
5850;DHT22;2951;47.712;9.400;2022-08-19T16:31:55;18.60;99.90